KMSP/MSP METAR and TAF weather

Enter ICAO airport designator
Station Type Date Time Source
KMSP METAR 2020/01/23 20:53 UTC NOAA

KMSP 232053Z 07006KT 7SM -SN OVC017 01/M03 A3002 RMK AO2 SNB41 SLP175 P0000 60000 T00061028 55003


Station Type Date Time Source
KMSP Decoded METAR 2020/01/23 20:53 UTC NOAA

MINNEAPOLIS-ST PAUL INTERNATIONAL , MN, United States (KMSP) 44-52N 93-13W 265M
Jan 23, 2020 - 03:53 PM EST / 2020.01.23 2053 UTC
Wind: from the ENE (070 degrees) at 7 MPH (6 KT):0
Visibility: 7 mile(s):0
Sky conditions: overcast
Weather: light snow
Precipitation last hour: A trace
Temperature: 33.1 F (0.6 C)
Windchill: 26 F (-3 C):1
Dew Point: 27.0 F (-2.8 C)
Relative Humidity: 77%
Pressure (altimeter): 30.02 in. Hg (1016 hPa)
Pressure tendency: 0.01 inches (0.3 hPa) lower than three hours ago
ob: KMSP 232053Z 07006KT 7SM -SN OVC017 01/M03 A3002 RMK AO2 SNB41 SLP175 P0000 60000 T00061028 55003
cycle: 21

Station Type Date Time Source
KMSP TAF 2020/01/23 21:06 UTC NOAA

TAF
AMD KMSP 232103Z 2321/2424 06006KT 4SM -SN BR OVC015
TEMPO 2321/2324 2SM -SN BR
FM240000 03005KT 2SM -SN BR OVC007
FM240600 02004KT 3SM BR OVC005
FM241400 36007KT 5SM BR OVC008

Example: see airport list